sensor_id;sensor_type;location;lat;lon;timestamp;temperature;humidity
17632;DHT22;8934;51.194;17.150;2022-11-30T00:01:45;-0.50;99.90
17632;DHT22;8934;51.194;17.150;2022-11-30T00:04:32;-0.50;99.90
17632;DHT22;8934;51.194;17.150;2022-11-30T00:07:21;-0.60;99.90
17632;DHT22;8934;51.194;17.150;2022-11-30T00:10:09;-0.60;99.90
17632;DHT22;8934;51.194;17.150;2022-11-30T00:12:57;-0.60;99.90
17632;DHT22;8934;51.194;17.150;2022-11-30T00:15:44;-0.60;99.90
17632;DHT22;8934;51.194;17.150;2022-11-30T00:18:31;-0.60;99.90
17632;DHT22;8934;51.194;17.150;2022-11-30T00:21:19;-0.60;99.90
17632;DHT22;8934;51.194;17.150;2022-11-30T00:24:06;-0.60;99.90
17632;DHT22;8934;51.194;17.150;2022-11-30T00:26:54;-0.60;99.90
17632;DHT22;8934;51.194;17.150;2022-11-30T00:29:42;-0.60;99.90
17632;DHT22;8934;51.194;17.150;2022-11-30T00:32:29;-0.70;99.90
17632;DHT22;8934;51.194;17.150;2022-11-30T00:35:16;-0.70;99.90
17632;DHT22;8934;51.194;17.150;2022-11-30T00:38:04;-0.70;99.90
17632;DHT22;8934;51.194;17.150;2022-11-30T00:40:51;-0.70;99.90
17632;DHT22;8934;51.194;17.150;2022-11-30T00:43:38;-0.70;99.90
17632;DHT22;8934;51.194;17.150;2022-11-30T00:46:27;-0.70;99.90
17632;DHT22;8934;51.194;17.150;2022-11-30T00:49:13;-0.70;99.90
17632;DHT22;8934;51.194;17.150;2022-11-30T00:52:01;-0.80;99.90
17632;DHT22;8934;51.194;17.150;2022-11-30T00:54:48;-0.80;99.90
17632;DHT22;8934;51.194;17.150;2022-11-30T00:57:34;-0.80;99.90
17632;DHT22;8934;51.194;17.150;2022-11-30T01:00:22;-0.80;99.90
17632;DHT22;8934;51.194;17.150;2022-11-30T01:03:10;-0.80;99.90
17632;DHT22;8934;51.194;17.150;2022-11-30T01:06:00;-0.80;99.90
17632;DHT22;8934;51.194;17.150;2022-11-30T01:08:49;-0.80;99.90
17632;DHT22;8934;51.194;17.150;2022-11-30T01:11:36;-0.80;99.90
17632;DHT22;8934;51.194;17.150;2022-11-30T01:14:23;-0.80;99.90
17632;DHT22;8934;51.194;17.150;2022-11-30T01:17:11;-0.80;99.90
17632;DHT22;8934;51.194;17.150;2022-11-30T01:19:59;-0.80;99.90
17632;DHT22;8934;51.194;17.150;2022-11-30T01:22:46;-0.70;99.90
17632;DHT22;8934;51.194;17.150;2022-11-30T01:25:34;-0.70;99.90
17632;DHT22;8934;51.194;17.150;2022-11-30T01:28:21;-0.70;99.90
17632;DHT22;8934;51.194;17.150;2022-11-30T01:31:10;-0.80;99.90
17632;DHT22;8934;51.194;17.150;2022-11-30T01:33:57;-0.70;99.90
17632;DHT22;8934;51.194;17.150;2022-11-30T01:36:47;-0.70;99.90
17632;DHT22;8934;51.194;17.150;2022-11-30T01:39:34;-0.80;99.90
17632;DHT22;8934;51.194;17.150;2022-11-30T01:42:21;-0.70;99.90
17632;DHT22;8934;51.194;17.150;2022-11-30T01:45:12;-0.70;99.90
17632;DHT22;8934;51.194;17.150;2022-11-30T01:47:59;-0.60;99.90
17632;DHT22;8934;51.194;17.150;2022-11-30T01:50:47;-0.60;99.90
17632;DHT22;8934;51.194;17.150;2022-11-30T01:53:35;-0.60;99.90
17632;DHT22;8934;51.194;17.150;2022-11-30T01:56:23;-0.50;99.90
17632;DHT22;8934;51.194;17.150;2022-11-30T01:59:10;-0.40;99.90
17632;DHT22;8934;51.194;17.150;2022-11-30T02:01:58;-0.40;99.90
17632;DHT22;8934;51.194;17.150;2022-11-30T02:04:45;-0.40;99.90
17632;DHT22;8934;51.194;17.150;2022-11-30T02:07:32;-0.30;99.90
17632;DHT22;8934;51.194;17.150;2022-11-30T02:10:26;-0.20;99.90
17632;DHT22;8934;51.194;17.150;2022-11-30T02:16:39;-0.10;99.90
17632;DHT22;8934;51.194;17.150;2022-11-30T02:20:06;-0.10;99.90
17632;DHT22;8934;51.194;17.150;2022-11-30T02:26:39;-0.10;99.90
17632;DHT22;8934;51.194;17.150;2022-11-30T02:29:32;0.00;99.90
17632;DHT22;8934;51.194;17.150;2022-11-30T02:32:24;0.00;99.90
17632;DHT22;8934;51.194;17.150;2022-11-30T02:35:16;0.00;99.90
17632;DHT22;8934;51.194;17.150;2022-11-30T02:38:05;0.00;99.90
17632;DHT22;8934;51.194;17.150;2022-11-30T02:40:52;0.00;99.90
17632;DHT22;8934;51.194;17.150;2022-11-30T02:43:39;0.00;99.90
17632;DHT22;8934;51.194;17.150;2022-11-30T02:46:37;0.00;99.90
17632;DHT22;8934;51.194;17.150;2022-11-30T02:49:32;0.00;99.90
17632;DHT22;8934;51.194;17.150;2022-11-30T02:52:24;0.00;99.90
17632;DHT22;8934;51.194;17.150;2022-11-30T02:55:15;0.00;99.90
17632;DHT22;8934;51.194;17.150;2022-11-30T02:58:02;0.00;99.90
17632;DHT22;8934;51.194;17.150;2022-11-30T03:00:49;0.00;99.90
17632;DHT22;8934;51.194;17.150;2022-11-30T03:03:38;0.00;99.90
17632;DHT22;8934;51.194;17.150;2022-11-30T03:06:25;0.00;99.90
17632;DHT22;8934;51.194;17.150;2022-11-30T03:09:12;0.00;99.90
17632;DHT22;8934;51.194;17.150;2022-11-30T03:12:00;0.00;99.90
17632;DHT22;8934;51.194;17.150;2022-11-30T03:14:47;0.00;99.90
17632;DHT22;8934;51.194;17.150;2022-11-30T03:17:34;0.00;99.90
17632;DHT22;8934;51.194;17.150;2022-11-30T03:20:23;0.00;99.90
17632;DHT22;8934;51.194;17.150;2022-11-30T03:23:10;-0.10;99.90
17632;DHT22;8934;51.194;17.150;2022-11-30T03:25:57;-0.10;99.90
17632;DHT22;8934;51.194;17.150;2022-11-30T03:28:45;-0.10;99.90
17632;DHT22;8934;51.194;17.150;2022-11-30T03:31:32;0.00;99.90
17632;DHT22;8934;51.194;17.150;2022-11-30T03:34:19;0.00;99.90
17632;DHT22;8934;51.194;17.150;2022-11-30T03:37:08;0.00;99.90
17632;DHT22;8934;51.194;17.150;2022-11-30T03:39:55;0.00;99.90
17632;DHT22;8934;51.194;17.150;2022-11-30T03:42:43;0.00;99.90
17632;DHT22;8934;51.194;17.150;2022-11-30T03:45:30;-0.10;99.90
17632;DHT22;8934;51.194;17.150;2022-11-30T03:48:17;-0.10;99.90
17632;DHT22;8934;51.194;17.150;2022-11-30T03:51:04;-0.10;99.90
17632;DHT22;8934;51.194;17.150;2022-11-30T03:53:53;-0.10;99.90
17632;DHT22;8934;51.194;17.150;2022-11-30T03:56:40;-0.10;99.90
17632;DHT22;8934;51.194;17.150;2022-11-30T03:59:27;-0.10;99.90
17632;DHT22;8934;51.194;17.150;2022-11-30T04:02:14;-0.10;99.90
17632;DHT22;8934;51.194;17.150;2022-11-30T04:05:01;-0.10;99.90
17632;DHT22;8934;51.194;17.150;2022-11-30T04:07:48;-0.10;99.90
17632;DHT22;8934;51.194;17.150;2022-11-30T04:10:37;-0.10;99.90
17632;DHT22;8934;51.194;17.150;2022-11-30T04:13:24;-0.10;99.90
17632;DHT22;8934;51.194;17.150;2022-11-30T04:16:11;-0.10;99.90
17632;DHT22;8934;51.194;17.150;2022-11-30T04:18:59;0.00;99.90
17632;DHT22;8934;51.194;17.150;2022-11-30T04:21:46;0.00;99.90
17632;DHT22;8934;51.194;17.150;2022-11-30T04:24:33;0.00;99.90
17632;DHT22;8934;51.194;17.150;2022-11-30T04:27:21;0.00;99.90
17632;DHT22;8934;51.194;17.150;2022-11-30T04:30:09;0.00;99.90
17632;DHT22;8934;51.194;17.150;2022-11-30T04:32:57;-0.10;99.90
17632;DHT22;8934;51.194;17.150;2022-11-30T04:35:46;-0.10;99.90
17632;DHT22;8934;51.194;17.150;2022-11-30T04:38:35;-0.10;99.90
17632;DHT22;8934;51.194;17.150;2022-11-30T04:41:23;-0.10;99.90
17632;DHT22;8934;51.194;17.150;2022-11-30T04:44:12;-0.10;99.90
17632;DHT22;8934;51.194;17.150;2022-11-30T04:46:59;-0.10;99.90
17632;DHT22;8934;51.194;17.150;2022-11-30T04:49:46;0.00;99.90
17632;DHT22;8934;51.194;17.150;2022-11-30T04:52:33;0.00;99.90
17632;DHT22;8934;51.194;17.150;2022-11-30T04:55:20;0.00;99.90
17632;DHT22;8934;51.194;17.150;2022-11-30T04:58:07;0.00;99.90
17632;DHT22;8934;51.194;17.150;2022-11-30T05:00:56;0.00;99.90
17632;DHT22;8934;51.194;17.150;2022-11-30T05:03:43;-0.10;99.90
17632;DHT22;8934;51.194;17.150;2022-11-30T05:06:30;0.00;99.90
17632;DHT22;8934;51.194;17.150;2022-11-30T05:09:17;0.00;99.90
17632;DHT22;8934;51.194;17.150;2022-11-30T05:12:04;0.10;99.90
17632;DHT22;8934;51.194;17.150;2022-11-30T05:14:52;0.10;99.90
17632;DHT22;8934;51.194;17.150;2022-11-30T05:17:40;0.10;99.90
17632;DHT22;8934;51.194;17.150;2022-11-30T05:20:27;0.10;99.90
17632;DHT22;8934;51.194;17.150;2022-11-30T05:23:15;0.00;99.90
17632;DHT22;8934;51.194;17.150;2022-11-30T05:26:03;0.00;99.90
17632;DHT22;8934;51.194;17.150;2022-11-30T05:28:50;0.00;99.90
17632;DHT22;8934;51.194;17.150;2022-11-30T05:31:37;0.10;99.90
17632;DHT22;8934;51.194;17.150;2022-11-30T05:34:27;0.10;99.90
17632;DHT22;8934;51.194;17.150;2022-11-30T05:37:14;0.00;99.90
17632;DHT22;8934;51.194;17.150;2022-11-30T05:40:01;0.00;99.90
17632;DHT22;8934;51.194;17.150;2022-11-30T05:42:54;0.00;99.90
17632;DHT22;8934;51.194;17.150;2022-11-30T05:45:42;0.00;99.90
17632;DHT22;8934;51.194;17.150;2022-11-30T05:48:29;0.00;99.90
17632;DHT22;8934;51.194;17.150;2022-11-30T05:51:19;0.00;99.90
17632;DHT22;8934;51.194;17.150;2022-11-30T05:54:06;0.10;99.90
17632;DHT22;8934;51.194;17.150;2022-11-30T05:56:53;0.10;99.90
17632;DHT22;8934;51.194;17.150;2022-11-30T05:59:40;0.00;99.90
17632;DHT22;8934;51.194;17.150;2022-11-30T06:02:27;0.00;99.90
17632;DHT22;8934;51.194;17.150;2022-11-30T06:05:15;0.00;99.90
17632;DHT22;8934;51.194;17.150;2022-11-30T06:08:04;0.00;99.90
17632;DHT22;8934;51.194;17.150;2022-11-30T06:10:51;0.00;99.90
17632;DHT22;8934;51.194;17.150;2022-11-30T06:13:38;0.10;99.90
17632;DHT22;8934;51.194;17.150;2022-11-30T06:16:26;0.10;99.90
17632;DHT22;8934;51.194;17.150;2022-11-30T06:19:13;0.10;99.90
17632;DHT22;8934;51.194;17.150;2022-11-30T06:22:00;0.10;99.90
17632;DHT22;8934;51.194;17.150;2022-11-30T06:24:49;0.10;99.90
17632;DHT22;8934;51.194;17.150;2022-11-30T06:27:36;0.10;99.90
17632;DHT22;8934;51.194;17.150;2022-11-30T06:30:23;0.10;99.90
17632;DHT22;8934;51.194;17.150;2022-11-30T06:33:10;0.10;99.90
17632;DHT22;8934;51.194;17.150;2022-11-30T06:35:58;0.10;99.90
17632;DHT22;8934;51.194;17.150;2022-11-30T06:38:45;0.10;99.90
17632;DHT22;8934;51.194;17.150;2022-11-30T06:41:33;0.10;99.90
17632;DHT22;8934;51.194;17.150;2022-11-30T06:44:21;0.10;99.90
17632;DHT22;8934;51.194;17.150;2022-11-30T06:47:08;0.10;99.90
17632;DHT22;8934;51.194;17.150;2022-11-30T06:49:55;0.20;99.90
17632;DHT22;8934;51.194;17.150;2022-11-30T06:52:42;0.20;99.90
17632;DHT22;8934;51.194;17.150;2022-11-30T06:55:29;0.20;99.90
17632;DHT22;8934;51.194;17.150;2022-11-30T06:58:22;0.30;99.90
17632;DHT22;8934;51.194;17.150;2022-11-30T07:01:11;0.30;99.90
17632;DHT22;8934;51.194;17.150;2022-11-30T07:03:58;0.30;99.90
17632;DHT22;8934;51.194;17.150;2022-11-30T07:06:45;0.30;99.90
17632;DHT22;8934;51.194;17.150;2022-11-30T07:09:32;0.30;99.90
17632;DHT22;8934;51.194;17.150;2022-11-30T07:12:19;0.30;99.90
17632;DHT22;8934;51.194;17.150;2022-11-30T07:15:09;0.30;99.90
17632;DHT22;8934;51.194;17.150;2022-11-30T07:17:59;0.30;99.90
17632;DHT22;8934;51.194;17.150;2022-11-30T07:20:46;0.40;99.90
17632;DHT22;8934;51.194;17.150;2022-11-30T07:23:34;0.40;99.90
17632;DHT22;8934;51.194;17.150;2022-11-30T07:26:41;0.40;99.90
17632;DHT22;8934;51.194;17.150;2022-11-30T07:29:29;0.40;99.90
17632;DHT22;8934;51.194;17.150;2022-11-30T07:32:18;0.40;99.90
17632;DHT22;8934;51.194;17.150;2022-11-30T07:35:05;0.40;99.90
17632;DHT22;8934;51.194;17.150;2022-11-30T07:37:52;0.40;99.90
17632;DHT22;8934;51.194;17.150;2022-11-30T07:40:40;0.30;99.90
17632;DHT22;8934;51.194;17.150;2022-11-30T07:43:27;0.30;99.90
17632;DHT22;8934;51.194;17.150;2022-11-30T07:46:15;0.30;99.90
17632;DHT22;8934;51.194;17.150;2022-11-30T07:49:05;0.30;99.90
17632;DHT22;8934;51.194;17.150;2022-11-30T07:51:52;0.30;99.90
17632;DHT22;8934;51.194;17.150;2022-11-30T07:54:39;0.30;99.90
17632;DHT22;8934;51.194;17.150;2022-11-30T07:57:26;0.40;99.90
17632;DHT22;8934;51.194;17.150;2022-11-30T08:00:14;0.40;99.90
17632;DHT22;8934;51.194;17.150;2022-11-30T08:03:01;0.40;99.90
17632;DHT22;8934;51.194;17.150;2022-11-30T08:05:50;0.40;99.90
17632;DHT22;8934;51.194;17.150;2022-11-30T08:08:39;0.50;99.90
17632;DHT22;8934;51.194;17.150;2022-11-30T08:11:28;0.50;99.90
17632;DHT22;8934;51.194;17.150;2022-11-30T08:14:15;0.50;99.90
17632;DHT22;8934;51.194;17.150;2022-11-30T08:17:03;0.50;99.90
17632;DHT22;8934;51.194;17.150;2022-11-30T08:19:50;0.50;99.90
17632;DHT22;8934;51.194;17.150;2022-11-30T08:22:38;0.50;99.90
17632;DHT22;8934;51.194;17.150;2022-11-30T08:25:25;0.60;99.90
17632;DHT22;8934;51.194;17.150;2022-11-30T08:28:13;0.60;99.90
17632;DHT22;8934;51.194;17.150;2022-11-30T08:31:01;0.60;99.90
17632;DHT22;8934;51.194;17.150;2022-11-30T08:33:53;0.60;99.90
17632;DHT22;8934;51.194;17.150;2022-11-30T08:36:40;0.60;99.90
17632;DHT22;8934;51.194;17.150;2022-11-30T08:39:36;0.60;99.90
17632;DHT22;8934;51.194;17.150;2022-11-30T08:42:23;0.60;99.90
17632;DHT22;8934;51.194;17.150;2022-11-30T08:45:10;0.60;99.90
17632;DHT22;8934;51.194;17.150;2022-11-30T08:47:58;0.60;99.90
17632;DHT22;8934;51.194;17.150;2022-11-30T08:50:44;0.60;99.90
17632;DHT22;8934;51.194;17.150;2022-11-30T08:53:32;0.60;99.90
17632;DHT22;8934;51.194;17.150;2022-11-30T08:56:21;0.60;99.90
17632;DHT22;8934;51.194;17.150;2022-11-30T08:59:09;0.60;99.90
17632;DHT22;8934;51.194;17.150;2022-11-30T09:01:56;0.70;99.90
17632;DHT22;8934;51.194;17.150;2022-11-30T09:04:43;0.70;99.90
17632;DHT22;8934;51.194;17.150;2022-11-30T09:07:31;0.70;99.90
17632;DHT22;8934;51.194;17.150;2022-11-30T09:10:19;0.70;99.90
17632;DHT22;8934;51.194;17.150;2022-11-30T09:13:07;0.70;99.90
17632;DHT22;8934;51.194;17.150;2022-11-30T09:15:55;0.70;99.90
17632;DHT22;8934;51.194;17.150;2022-11-30T09:18:42;0.80;99.90
17632;DHT22;8934;51.194;17.150;2022-11-30T09:21:29;0.70;99.90
17632;DHT22;8934;51.194;17.150;2022-11-30T09:24:16;0.80;99.90
17632;DHT22;8934;51.194;17.150;2022-11-30T09:27:03;0.70;99.90
17632;DHT22;8934;51.194;17.150;2022-11-30T09:29:52;0.80;99.90
17632;DHT22;8934;51.194;17.150;2022-11-30T09:32:39;0.80;99.90
17632;DHT22;8934;51.194;17.150;2022-11-30T09:35:26;0.80;99.90
17632;DHT22;8934;51.194;17.150;2022-11-30T09:38:13;0.70;99.90
17632;DHT22;8934;51.194;17.150;2022-11-30T09:41:02;0.70;99.90
17632;DHT22;8934;51.194;17.150;2022-11-30T09:43:54;0.80;99.90
17632;DHT22;8934;51.194;17.150;2022-11-30T09:46:48;0.80;99.90
17632;DHT22;8934;51.194;17.150;2022-11-30T09:49:39;0.80;99.90
17632;DHT22;8934;51.194;17.150;2022-11-30T09:52:32;0.80;99.90
17632;DHT22;8934;51.194;17.150;2022-11-30T09:55:24;0.80;99.90
17632;DHT22;8934;51.194;17.150;2022-11-30T09:58:20;0.90;99.90
17632;DHT22;8934;51.194;17.150;2022-11-30T10:01:15;0.90;99.90
17632;DHT22;8934;51.194;17.150;2022-11-30T10:04:08;0.90;99.90
17632;DHT22;8934;51.194;17.150;2022-11-30T10:07:04;0.90;99.90
17632;DHT22;8934;51.194;17.150;2022-11-30T10:09:59;0.90;99.90
17632;DHT22;8934;51.194;17.150;2022-11-30T10:13:24;0.90;99.90
17632;DHT22;8934;51.194;17.150;2022-11-30T10:16:23;0.90;99.90
17632;DHT22;8934;51.194;17.150;2022-11-30T10:19:26;1.00;99.90
17632;DHT22;8934;51.194;17.150;2022-11-30T10:22:21;1.00;99.90
17632;DHT22;8934;51.194;17.150;2022-11-30T10:25:16;1.00;99.90
17632;DHT22;8934;51.194;17.150;2022-11-30T10:28:14;1.10;99.90
17632;DHT22;8934;51.194;17.150;2022-11-30T10:31:25;1.10;99.90
17632;DHT22;8934;51.194;17.150;2022-11-30T10:34:18;1.10;99.90
17632;DHT22;8934;51.194;17.150;2022-11-30T10:37:11;1.10;99.90
17632;DHT22;8934;51.194;17.150;2022-11-30T10:40:01;1.10;99.90
17632;DHT22;8934;51.194;17.150;2022-11-30T10:43:03;1.10;99.90
17632;DHT22;8934;51.194;17.150;2022-11-30T10:45:52;1.20;99.90
17632;DHT22;8934;51.194;17.150;2022-11-30T10:48:40;1.20;99.90
17632;DHT22;8934;51.194;17.150;2022-11-30T10:51:30;1.30;99.90
17632;DHT22;8934;51.194;17.150;2022-11-30T10:54:21;1.20;99.90
17632;DHT22;8934;51.194;17.150;2022-11-30T10:57:09;1.20;99.90
17632;DHT22;8934;51.194;17.150;2022-11-30T10:59:57;1.20;99.90
17632;DHT22;8934;51.194;17.150;2022-11-30T11:02:46;1.20;99.90
17632;DHT22;8934;51.194;17.150;2022-11-30T11:05:33;1.20;99.90
17632;DHT22;8934;51.194;17.150;2022-11-30T11:08:24;1.20;99.90
17632;DHT22;8934;51.194;17.150;2022-11-30T11:11:29;1.20;99.90
17632;DHT22;8934;51.194;17.150;2022-11-30T11:14:19;1.30;99.90
17632;DHT22;8934;51.194;17.150;2022-11-30T11:17:22;1.30;99.90
17632;DHT22;8934;51.194;17.150;2022-11-30T11:20:28;1.20;99.90
17632;DHT22;8934;51.194;17.150;2022-11-30T11:23:21;1.20;99.90
17632;DHT22;8934;51.194;17.150;2022-11-30T11:26:17;1.20;99.90
17632;DHT22;8934;51.194;17.150;2022-11-30T11:29:05;1.20;99.90
17632;DHT22;8934;51.194;17.150;2022-11-30T11:31:52;1.20;99.90
17632;DHT22;8934;51.194;17.150;2022-11-30T11:34:39;1.20;99.90
17632;DHT22;8934;51.194;17.150;2022-11-30T11:37:34;1.20;99.90
17632;DHT22;8934;51.194;17.150;2022-11-30T11:40:25;1.30;99.90
17632;DHT22;8934;51.194;17.150;2022-11-30T11:43:16;1.30;99.90
17632;DHT22;8934;51.194;17.150;2022-11-30T11:46:10;1.40;99.90
17632;DHT22;8934;51.194;17.150;2022-11-30T11:49:00;1.40;99.90
17632;DHT22;8934;51.194;17.150;2022-11-30T11:51:59;1.40;99.90
17632;DHT22;8934;51.194;17.150;2022-11-30T11:54:49;1.40;99.90
17632;DHT22;8934;51.194;17.150;2022-11-30T11:57:42;1.40;99.90
17632;DHT22;8934;51.194;17.150;2022-11-30T12:00:32;1.40;99.90
17632;DHT22;8934;51.194;17.150;2022-11-30T12:03:27;1.40;99.90
17632;DHT22;8934;51.194;17.150;2022-11-30T12:06:18;1.40;99.90
17632;DHT22;8934;51.194;17.150;2022-11-30T12:09:11;1.40;99.90
17632;DHT22;8934;51.194;17.150;2022-11-30T12:11:59;1.40;99.90
17632;DHT22;8934;51.194;17.150;2022-11-30T12:14:47;1.50;99.90
17632;DHT22;8934;51.194;17.150;2022-11-30T12:17:48;1.50;99.90
17632;DHT22;8934;51.194;17.150;2022-11-30T12:20:46;1.40;99.90
17632;DHT22;8934;51.194;17.150;2022-11-30T12:26:46;1.40;99.90
17632;DHT22;8934;51.194;17.150;2022-11-30T12:29:39;1.40;99.90
17632;DHT22;8934;51.194;17.150;2022-11-30T12:32:51;1.40;99.90
17632;DHT22;8934;51.194;17.150;2022-11-30T12:35:50;1.40;99.90
17632;DHT22;8934;51.194;17.150;2022-11-30T12:38:47;1.40;99.90
17632;DHT22;8934;51.194;17.150;2022-11-30T12:41:39;1.40;99.90
17632;DHT22;8934;51.194;17.150;2022-11-30T12:44:36;1.30;99.90
17632;DHT22;8934;51.194;17.150;2022-11-30T12:47:39;1.30;99.90
17632;DHT22;8934;51.194;17.150;2022-11-30T12:50:38;1.40;99.90
17632;DHT22;8934;51.194;17.150;2022-11-30T12:53:31;1.40;99.90
17632;DHT22;8934;51.194;17.150;2022-11-30T12:56:29;1.40;99.90
17632;DHT22;8934;51.194;17.150;2022-11-30T12:59:21;1.40;99.90
17632;DHT22;8934;51.194;17.150;2022-11-30T13:02:25;1.40;99.90
17632;DHT22;8934;51.194;17.150;2022-11-30T13:05:20;1.40;99.90
17632;DHT22;8934;51.194;17.150;2022-11-30T13:08:17;1.30;99.90
17632;DHT22;8934;51.194;17.150;2022-11-30T13:11:07;1.30;99.90
17632;DHT22;8934;51.194;17.150;2022-11-30T13:13:58;1.20;99.90
17632;DHT22;8934;51.194;17.150;2022-11-30T13:16:46;1.20;99.90
17632;DHT22;8934;51.194;17.150;2022-11-30T13:19:46;1.20;99.90
17632;DHT22;8934;51.194;17.150;2022-11-30T13:22:44;1.10;99.90
17632;DHT22;8934;51.194;17.150;2022-11-30T13:25:37;1.10;99.90
17632;DHT22;8934;51.194;17.150;2022-11-30T13:29:02;1.10;99.90
17632;DHT22;8934;51.194;17.150;2022-11-30T13:31:53;1.10;99.90
17632;DHT22;8934;51.194;17.150;2022-11-30T13:34:42;1.00;99.90
17632;DHT22;8934;51.194;17.150;2022-11-30T13:37:30;1.00;99.90
17632;DHT22;8934;51.194;17.150;2022-11-30T13:40:19;1.00;99.90
17632;DHT22;8934;51.194;17.150;2022-11-30T13:43:15;1.00;99.90
17632;DHT22;8934;51.194;17.150;2022-11-30T13:46:17;1.00;99.90
17632;DHT22;8934;51.194;17.150;2022-11-30T13:49:20;1.00;99.90
17632;DHT22;8934;51.194;17.150;2022-11-30T13:52:11;1.00;99.90
17632;DHT22;8934;51.194;17.150;2022-11-30T13:58:31;0.90;99.90
17632;DHT22;8934;51.194;17.150;2022-11-30T14:01:24;1.00;99.90
17632;DHT22;8934;51.194;17.150;2022-11-30T14:04:30;1.00;99.90
17632;DHT22;8934;51.194;17.150;2022-11-30T14:07:35;1.00;99.90
17632;DHT22;8934;51.194;17.150;2022-11-30T14:10:27;1.00;99.90
17632;DHT22;8934;51.194;17.150;2022-11-30T14:13:29;0.90;99.90
17632;DHT22;8934;51.194;17.150;2022-11-30T14:16:23;0.80;99.90
17632;DHT22;8934;51.194;17.150;2022-11-30T14:19:11;0.80;99.90
17632;DHT22;8934;51.194;17.150;2022-11-30T14:22:02;0.80;99.90
17632;DHT22;8934;51.194;17.150;2022-11-30T14:24:49;0.80;99.90
17632;DHT22;8934;51.194;17.150;2022-11-30T14:27:37;0.80;99.90
17632;DHT22;8934;51.194;17.150;2022-11-30T14:30:25;0.70;99.90
17632;DHT22;8934;51.194;17.150;2022-11-30T14:33:17;0.70;99.90
17632;DHT22;8934;51.194;17.150;2022-11-30T14:36:06;0.80;99.90
17632;DHT22;8934;51.194;17.150;2022-11-30T14:38:53;0.80;99.90
17632;DHT22;8934;51.194;17.150;2022-11-30T14:41:41;0.80;99.90
17632;DHT22;8934;51.194;17.150;2022-11-30T14:44:33;0.80;99.90
17632;DHT22;8934;51.194;17.150;2022-11-30T14:47:21;0.80;99.90
17632;DHT22;8934;51.194;17.150;2022-11-30T14:50:21;0.80;99.90
17632;DHT22;8934;51.194;17.150;2022-11-30T14:53:20;0.70;99.90
17632;DHT22;8934;51.194;17.150;2022-11-30T14:56:15;0.80;99.90
17632;DHT22;8934;51.194;17.150;2022-11-30T14:59:14;0.80;99.90
17632;DHT22;8934;51.194;17.150;2022-11-30T15:02:03;0.80;99.90
17632;DHT22;8934;51.194;17.150;2022-11-30T15:04:51;0.80;99.90
17632;DHT22;8934;51.194;17.150;2022-11-30T15:07:41;0.80;99.90
17632;DHT22;8934;51.194;17.150;2022-11-30T15:10:30;0.80;99.90
17632;DHT22;8934;51.194;17.150;2022-11-30T15:13:19;0.80;99.90
17632;DHT22;8934;51.194;17.150;2022-11-30T15:16:10;0.80;99.90
17632;DHT22;8934;51.194;17.150;2022-11-30T15:19:13;0.80;99.90
17632;DHT22;8934;51.194;17.150;2022-11-30T15:22:03;0.80;99.90
17632;DHT22;8934;51.194;17.150;2022-11-30T15:24:51;0.80;99.90
17632;DHT22;8934;51.194;17.150;2022-11-30T15:27:39;0.80;99.90
17632;DHT22;8934;51.194;17.150;2022-11-30T15:30:26;0.80;99.90
17632;DHT22;8934;51.194;17.150;2022-11-30T15:33:17;0.80;99.90
17632;DHT22;8934;51.194;17.150;2022-11-30T15:36:06;0.80;99.90
17632;DHT22;8934;51.194;17.150;2022-11-30T15:39:17;0.80;99.90
17632;DHT22;8934;51.194;17.150;2022-11-30T15:42:06;0.80;99.90
17632;DHT22;8934;51.194;17.150;2022-11-30T15:45:08;0.80;99.90
17632;DHT22;8934;51.194;17.150;2022-11-30T15:47:57;0.80;99.90
17632;DHT22;8934;51.194;17.150;2022-11-30T15:50:45;0.80;99.90
17632;DHT22;8934;51.194;17.150;2022-11-30T15:53:33;0.80;99.90
17632;DHT22;8934;51.194;17.150;2022-11-30T15:56:23;0.80;99.90
17632;DHT22;8934;51.194;17.150;2022-11-30T15:59:22;0.80;99.90
17632;DHT22;8934;51.194;17.150;2022-11-30T16:02:25;0.80;99.90
17632;DHT22;8934;51.194;17.150;2022-11-30T16:05:22;0.80;99.90
17632;DHT22;8934;51.194;17.150;2022-11-30T16:08:13;0.90;99.90
17632;DHT22;8934;51.194;17.150;2022-11-30T16:11:03;0.90;99.90
17632;DHT22;8934;51.194;17.150;2022-11-30T16:13:52;0.90;99.90
17632;DHT22;8934;51.194;17.150;2022-11-30T16:16:41;0.90;99.90
17632;DHT22;8934;51.194;17.150;2022-11-30T16:19:29;0.80;99.90
17632;DHT22;8934;51.194;17.150;2022-11-30T16:22:16;0.90;99.90
17632;DHT22;8934;51.194;17.150;2022-11-30T16:25:03;0.90;99.90
17632;DHT22;8934;51.194;17.150;2022-11-30T16:27:50;0.90;99.90
17632;DHT22;8934;51.194;17.150;2022-11-30T16:30:38;1.00;99.90
17632;DHT22;8934;51.194;17.150;2022-11-30T16:33:27;0.90;99.90
17632;DHT22;8934;51.194;17.150;2022-11-30T16:36:16;0.90;99.90
17632;DHT22;8934;51.194;17.150;2022-11-30T16:39:03;0.80;99.90
17632;DHT22;8934;51.194;17.150;2022-11-30T16:41:50;0.80;99.90
17632;DHT22;8934;51.194;17.150;2022-11-30T16:44:37;0.80;99.90
17632;DHT22;8934;51.194;17.150;2022-11-30T16:47:24;0.90;99.90
17632;DHT22;8934;51.194;17.150;2022-11-30T16:50:13;0.90;99.90
17632;DHT22;8934;51.194;17.150;2022-11-30T16:53:01;0.90;99.90
17632;DHT22;8934;51.194;17.150;2022-11-30T16:55:48;0.90;99.90
17632;DHT22;8934;51.194;17.150;2022-11-30T16:58:36;0.90;99.90
17632;DHT22;8934;51.194;17.150;2022-11-30T17:01:26;0.90;99.90
17632;DHT22;8934;51.194;17.150;2022-11-30T17:04:22;0.90;99.90
17632;DHT22;8934;51.194;17.150;2022-11-30T17:07:11;0.90;99.90
17632;DHT22;8934;51.194;17.150;2022-11-30T17:09:59;0.90;99.90
17632;DHT22;8934;51.194;17.150;2022-11-30T17:12:46;0.90;99.90
17632;DHT22;8934;51.194;17.150;2022-11-30T17:15:33;0.90;99.90
17632;DHT22;8934;51.194;17.150;2022-11-30T17:18:20;0.90;99.90
17632;DHT22;8934;51.194;17.150;2022-11-30T17:21:12;0.90;99.90
17632;DHT22;8934;51.194;17.150;2022-11-30T17:24:02;0.90;99.90
17632;DHT22;8934;51.194;17.150;2022-11-30T17:26:50;0.90;99.90
17632;DHT22;8934;51.194;17.150;2022-11-30T17:29:37;0.90;99.90
17632;DHT22;8934;51.194;17.150;2022-11-30T17:32:25;0.90;99.90
17632;DHT22;8934;51.194;17.150;2022-11-30T17:35:12;0.90;99.90
17632;DHT22;8934;51.194;17.150;2022-11-30T17:37:59;0.90;99.90
17632;DHT22;8934;51.194;17.150;2022-11-30T17:40:48;0.90;99.90
17632;DHT22;8934;51.194;17.150;2022-11-30T17:43:35;0.90;99.90
17632;DHT22;8934;51.194;17.150;2022-11-30T17:46:22;0.90;99.90
17632;DHT22;8934;51.194;17.150;2022-11-30T17:49:09;0.90;99.90
17632;DHT22;8934;51.194;17.150;2022-11-30T17:51:56;0.90;99.90
17632;DHT22;8934;51.194;17.150;2022-11-30T17:54:44;0.90;99.90
17632;DHT22;8934;51.194;17.150;2022-11-30T17:57:36;0.90;99.90
17632;DHT22;8934;51.194;17.150;2022-11-30T18:00:23;0.90;99.90
17632;DHT22;8934;51.194;17.150;2022-11-30T18:03:10;0.90;99.90
17632;DHT22;8934;51.194;17.150;2022-11-30T18:05:59;0.90;99.90
17632;DHT22;8934;51.194;17.150;2022-11-30T18:08:46;0.90;99.90
17632;DHT22;8934;51.194;17.150;2022-11-30T18:11:34;0.90;99.90
17632;DHT22;8934;51.194;17.150;2022-11-30T18:14:22;0.90;99.90
17632;DHT22;8934;51.194;17.150;2022-11-30T18:21:25;0.90;99.90
17632;DHT22;8934;51.194;17.150;2022-11-30T18:24:13;0.90;99.90
17632;DHT22;8934;51.194;17.150;2022-11-30T18:26:59;0.90;99.90